BCS62A EBBR-EDDP
Flight info
| Callsign | BCS62A |
|---|---|
| Flight time | 0h 57m |
| Altitude | 35000 |
| Route | SOPOK Y863 OGLOR DCT AMASI DCT MASEK DCT FEDZA T957 ESEGU/N0475F310 T957 KOJEC KOJEC1R |
| Aircraft | A333/H-SDE3GHIJ2J3J5M1RVWXY/LB2D1 |
Departure
| Time | 2026-05-07 10:35 |
|---|---|
| Airport | Brussels Airport (EBBR) |
Arrival
| Time | 2026-05-07 11:32 |
|---|---|
| Airport | Leipzig/Halle Airport (EDDP) |
| Time | Latitude | Longitude | Altitude | Speed | Heading |
|---|---|---|---|---|---|
| 2026-05-07 10:02 | 50.90368 | 4.46074 | 139 ft | 0 kts | 335° |
| 2026-05-07 10:21 | 50.90351 | 4.46085 | 139 ft | 4 kts | 339° |
| 2026-05-07 10:21 | 50.90325 | 4.46099 | 139 ft | 4 kts | 347° |
| 2026-05-07 10:22 | 50.90299 | 4.46104 | 139 ft | 4 kts | 4° |
| 2026-05-07 10:22 | 50.90275 | 4.46094 | 139 ft | 4 kts | 50° |
| 2026-05-07 10:22 | 50.90271 | 4.46086 | 139 ft | 3 kts | 65° |
| 2026-05-07 10:26 | 50.90273 | 4.46092 | 139 ft | 3 kts | 65° |
| 2026-05-07 10:27 | 50.90292 | 4.46156 | 139 ft | 8 kts | 64° |
| 2026-05-07 10:27 | 50.90325 | 4.46269 | 137 ft | 13 kts | 66° |
| 2026-05-07 10:27 | 50.90359 | 4.46405 | 136 ft | 12 kts | 77° |
| 2026-05-07 10:27 | 50.90355 | 4.46511 | 135 ft | 7 kts | 109° |
| 2026-05-07 10:28 | 50.90353 | 4.46520 | 135 ft | 0 kts | 111° |
| 2026-05-07 10:28 | 50.90352 | 4.46523 | 132 ft | 2 kts | 111° |
| 2026-05-07 10:29 | 50.90330 | 4.46603 | 128 ft | 13 kts | 116° |
| 2026-05-07 10:29 | 50.90280 | 4.46760 | 123 ft | 17 kts | 116° |
| 2026-05-07 10:29 | 50.90225 | 4.46937 | 130 ft | 18 kts | 116° |
| 2026-05-07 10:30 | 50.90197 | 4.47251 | 123 ft | 15 kts | 65° |
| 2026-05-07 10:30 | 50.90245 | 4.47410 | 121 ft | 17 kts | 64° |
| 2026-05-07 10:30 | 50.90294 | 4.47590 | 120 ft | 18 kts | 65° |
| 2026-05-07 10:30 | 50.90349 | 4.47776 | 120 ft | 19 kts | 65° |
| 2026-05-07 10:31 | 50.90404 | 4.47968 | 122 ft | 20 kts | 66° |
| 2026-05-07 10:31 | 50.90461 | 4.48167 | 120 ft | 20 kts | 65° |
| 2026-05-07 10:31 | 50.90521 | 4.48372 | 122 ft | 21 kts | 65° |
| 2026-05-07 10:31 | 50.90582 | 4.48583 | 121 ft | 21 kts | 65° |
| 2026-05-07 10:32 | 50.90645 | 4.48802 | 122 ft | 22 kts | 65° |
| 2026-05-07 10:32 | 50.90709 | 4.49025 | 120 ft | 22 kts | 65° |
| 2026-05-07 10:32 | 50.90774 | 4.49246 | 121 ft | 22 kts | 65° |
| 2026-05-07 10:32 | 50.90836 | 4.49465 | 125 ft | 22 kts | 66° |
| 2026-05-07 10:33 | 50.90901 | 4.49682 | 122 ft | 22 kts | 65° |
| 2026-05-07 10:33 | 50.90942 | 4.49807 | 123 ft | 12 kts | 52° |
| 2026-05-07 10:33 | 50.91015 | 4.49898 | 120 ft | 15 kts | 27° |
| 2026-05-07 10:33 | 50.91089 | 4.49942 | 119 ft | 8 kts | 12° |
| 2026-05-07 10:34 | 50.91131 | 4.49899 | 122 ft | 7 kts | 292° |
| 2026-05-07 10:34 | 50.91120 | 4.49818 | 119 ft | 8 kts | 245° |
| 2026-05-07 10:34 | 50.91094 | 4.49727 | 121 ft | 10 kts | 245° |
| 2026-05-07 10:34 | 50.91022 | 4.49480 | 120 ft | 51 kts | 246° |
| 2026-05-07 10:35 | 50.90787 | 4.48669 | 119 ft | 110 kts | 245° |
| 2026-05-07 10:35 | 50.90393 | 4.47319 | 148 ft | 158 kts | 244° |
| 2026-05-07 10:35 | 50.89908 | 4.45778 | 814 ft | 152 kts | 243° |
| 2026-05-07 10:35 | 50.89413 | 4.44281 | 1439 ft | 161 kts | 242° |
| 2026-05-07 10:36 | 50.88849 | 4.42591 | 1722 ft | 187 kts | 242° |
| 2026-05-07 10:36 | 50.88223 | 4.40616 | 2055 ft | 212 kts | 244° |
| 2026-05-07 10:36 | 50.87419 | 4.38488 | 2378 ft | 238 kts | 240° |
| 2026-05-07 10:36 | 50.86641 | 4.36073 | 2819 ft | 258 kts | 245° |
| 2026-05-07 10:37 | 50.85918 | 4.33443 | 3614 ft | 262 kts | 247° |
| 2026-05-07 10:37 | 50.85203 | 4.30784 | 4461 ft | 264 kts | 246° |
| 2026-05-07 10:37 | 50.84126 | 4.28421 | 5290 ft | 266 kts | 220° |
| 2026-05-07 10:37 | 50.82490 | 4.27135 | 6161 ft | 266 kts | 192° |
| 2026-05-07 10:38 | 50.80654 | 4.27211 | 7042 ft | 268 kts | 165° |
| 2026-05-07 10:38 | 50.79016 | 4.28623 | 7851 ft | 273 kts | 137° |
| 2026-05-07 10:38 | 50.77935 | 4.31096 | 8662 ft | 279 kts | 112° |
| 2026-05-07 10:38 | 50.77306 | 4.34028 | 9480 ft | 283 kts | 111° |
| 2026-05-07 10:39 | 50.76863 | 4.35977 | 10000 ft | 287 kts | 109° |
| 2026-05-07 10:39 | 50.76214 | 4.39013 | 10519 ft | 300 kts | 109° |
| 2026-05-07 10:39 | 50.75552 | 4.42271 | 10823 ft | 321 kts | 108° |
| 2026-05-07 10:39 | 50.74872 | 4.45722 | 11197 ft | 337 kts | 107° |
| 2026-05-07 10:40 | 50.73943 | 4.50489 | 12035 ft | 347 kts | 107° |
| 2026-05-07 10:40 | 50.73463 | 4.52963 | 12527 ft | 350 kts | 107° |
| 2026-05-07 10:40 | 50.72747 | 4.56660 | 13252 ft | 354 kts | 107° |
| 2026-05-07 10:40 | 50.72023 | 4.60398 | 13950 ft | 359 kts | 107° |
| 2026-05-07 10:41 | 50.71288 | 4.64195 | 14594 ft | 363 kts | 107° |
| 2026-05-07 10:41 | 50.70546 | 4.68013 | 15252 ft | 367 kts | 107° |
| 2026-05-07 10:41 | 50.69791 | 4.71894 | 15888 ft | 370 kts | 107° |
| 2026-05-07 10:41 | 50.69032 | 4.75789 | 16542 ft | 374 kts | 107° |
| 2026-05-07 10:42 | 50.68273 | 4.79680 | 17188 ft | 377 kts | 107° |
| 2026-05-07 10:42 | 50.67488 | 4.83706 | 17883 ft | 381 kts | 107° |
| 2026-05-07 10:42 | 50.66706 | 4.87718 | 18481 ft | 385 kts | 108° |
| 2026-05-07 10:42 | 50.65924 | 4.91709 | 19025 ft | 388 kts | 108° |
| 2026-05-07 10:43 | 50.65117 | 4.95803 | 19566 ft | 391 kts | 108° |
| 2026-05-07 10:43 | 50.64305 | 4.99917 | 20110 ft | 394 kts | 108° |
| 2026-05-07 10:43 | 50.63487 | 5.04053 | 20639 ft | 397 kts | 108° |
| 2026-05-07 10:43 | 50.62659 | 5.08223 | 21184 ft | 400 kts | 108° |
| 2026-05-07 10:44 | 50.61821 | 5.12424 | 21698 ft | 403 kts | 108° |
| 2026-05-07 10:44 | 50.60990 | 5.16588 | 22185 ft | 406 kts | 108° |
| 2026-05-07 10:44 | 50.60103 | 5.20831 | 22694 ft | 409 kts | 111° |
| 2026-05-07 10:44 | 50.58869 | 5.24874 | 23179 ft | 411 kts | 122° |
| 2026-05-07 10:45 | 50.57125 | 5.28465 | 23669 ft | 413 kts | 133° |
| 2026-05-07 10:45 | 50.55106 | 5.31716 | 24076 ft | 416 kts | 136° |
| 2026-05-07 10:45 | 50.53035 | 5.34895 | 24480 ft | 418 kts | 136° |
| 2026-05-07 10:45 | 50.50937 | 5.38102 | 24865 ft | 421 kts | 136° |
| 2026-05-07 10:46 | 50.48829 | 5.41331 | 25276 ft | 423 kts | 136° |
| 2026-05-07 10:46 | 50.46716 | 5.44576 | 25690 ft | 426 kts | 136° |
| 2026-05-07 10:46 | 50.44591 | 5.47840 | 26076 ft | 428 kts | 136° |
| 2026-05-07 10:46 | 50.42484 | 5.51078 | 26456 ft | 430 kts | 136° |
| 2026-05-07 10:47 | 50.40343 | 5.54365 | 26852 ft | 433 kts | 136° |
| 2026-05-07 10:47 | 50.38184 | 5.57676 | 27230 ft | 435 kts | 136° |
| 2026-05-07 10:47 | 50.36004 | 5.61014 | 27612 ft | 438 kts | 136° |
| 2026-05-07 10:47 | 50.33824 | 5.64348 | 27996 ft | 440 kts | 136° |
| 2026-05-07 10:48 | 50.31629 | 5.67703 | 28381 ft | 442 kts | 136° |
| 2026-05-07 10:48 | 50.29412 | 5.71088 | 28751 ft | 445 kts | 136° |
| 2026-05-07 10:48 | 50.27299 | 5.74672 | 29116 ft | 447 kts | 128° |
| 2026-05-07 10:48 | 50.25583 | 5.78661 | 29463 ft | 450 kts | 118° |
| 2026-05-07 10:49 | 50.24326 | 5.83158 | 29830 ft | 452 kts | 109° |
| 2026-05-07 10:49 | 50.23378 | 5.87846 | 30167 ft | 454 kts | 105° |
| 2026-05-07 10:49 | 50.22544 | 5.92626 | 30474 ft | 456 kts | 104° |
| 2026-05-07 10:49 | 50.21763 | 5.97444 | 30779 ft | 459 kts | 103° |
| 2026-05-07 10:50 | 50.20990 | 6.02291 | 31091 ft | 460 kts | 103° |
| 2026-05-07 10:50 | 50.20207 | 6.07151 | 31414 ft | 462 kts | 104° |
| 2026-05-07 10:50 | 50.19405 | 6.12031 | 31699 ft | 464 kts | 104° |
| 2026-05-07 10:50 | 50.18758 | 6.16980 | 31944 ft | 467 kts | 97° |
| 2026-05-07 10:51 | 50.18551 | 6.21969 | 32298 ft | 466 kts | 88° |
| 2026-05-07 10:51 | 50.18697 | 6.27003 | 32706 ft | 465 kts | 85° |
| 2026-05-07 10:51 | 50.18945 | 6.32036 | 33098 ft | 464 kts | 84° |
| 2026-05-07 10:51 | 50.19248 | 6.37046 | 33488 ft | 463 kts | 83° |
| 2026-05-07 10:52 | 50.19574 | 6.42051 | 33841 ft | 463 kts | 83° |
| 2026-05-07 10:52 | 50.19903 | 6.47051 | 34166 ft | 463 kts | 83° |
| 2026-05-07 10:52 | 50.20226 | 6.52067 | 34400 ft | 465 kts | 84° |
| 2026-05-07 10:52 | 50.20540 | 6.57079 | 34654 ft | 466 kts | 84° |
| 2026-05-07 10:53 | 50.20849 | 6.62121 | 34887 ft | 467 kts | 84° |
| 2026-05-07 10:53 | 50.21119 | 6.67185 | 34994 ft | 463 kts | 85° |
| 2026-05-07 10:53 | 50.21320 | 6.72137 | 35017 ft | 452 kts | 86° |
| 2026-05-07 10:53 | 50.21484 | 6.77001 | 35027 ft | 447 kts | 87° |
| 2026-05-07 10:54 | 50.21782 | 6.86673 | 35045 ft | 446 kts | 87° |
| 2026-05-07 10:54 | 50.22087 | 6.96350 | 35049 ft | 446 kts | 86° |
| 2026-05-07 10:55 | 50.22397 | 7.05988 | 35050 ft | 447 kts | 86° |
| 2026-05-07 10:55 | 50.22708 | 7.15696 | 35052 ft | 447 kts | 86° |
| 2026-05-07 10:56 | 50.23010 | 7.25395 | 35044 ft | 447 kts | 87° |
| 2026-05-07 10:56 | 50.23302 | 7.35088 | 35034 ft | 447 kts | 87° |
| 2026-05-07 10:57 | 50.23585 | 7.44796 | 35031 ft | 447 kts | 87° |
| 2026-05-07 10:57 | 50.23862 | 7.54504 | 35018 ft | 447 kts | 86° |
| 2026-05-07 10:58 | 50.25011 | 7.64000 | 35023 ft | 446 kts | 71° |
| 2026-05-07 10:58 | 50.27151 | 7.73097 | 35028 ft | 446 kts | 68° |
| 2026-05-07 10:59 | 50.29458 | 7.82060 | 35029 ft | 446 kts | 67° |
| 2026-05-07 10:59 | 50.31779 | 7.91041 | 35028 ft | 447 kts | 68° |
| 2026-05-07 11:00 | 50.34088 | 8.00112 | 35027 ft | 448 kts | 68° |
| 2026-05-07 11:00 | 50.36370 | 8.09181 | 35027 ft | 448 kts | 68° |
| 2026-05-07 11:01 | 50.38640 | 8.18247 | 35024 ft | 446 kts | 68° |
| 2026-05-07 11:01 | 50.40898 | 8.27302 | 35022 ft | 446 kts | 68° |
| 2026-05-07 11:02 | 50.43147 | 8.36359 | 35016 ft | 446 kts | 69° |
| 2026-05-07 11:02 | 50.45395 | 8.45437 | 35015 ft | 446 kts | 69° |
| 2026-05-07 11:03 | 50.47634 | 8.54525 | 35014 ft | 446 kts | 69° |
| 2026-05-07 11:03 | 50.49870 | 8.63629 | 35010 ft | 446 kts | 69° |
| 2026-05-07 11:04 | 50.52088 | 8.72710 | 35008 ft | 446 kts | 69° |
| 2026-05-07 11:04 | 50.54314 | 8.81861 | 35002 ft | 446 kts | 69° |
| 2026-05-07 11:05 | 50.56560 | 8.91124 | 34721 ft | 465 kts | 69° |
| 2026-05-07 11:05 | 50.57702 | 8.95848 | 34484 ft | 470 kts | 69° |
| 2026-05-07 11:05 | 50.58862 | 9.00660 | 34253 ft | 470 kts | 69° |
| 2026-05-07 11:06 | 50.60021 | 9.05470 | 34017 ft | 469 kts | 69° |
| 2026-05-07 11:06 | 50.61173 | 9.10263 | 33737 ft | 468 kts | 69° |
| 2026-05-07 11:06 | 50.62322 | 9.15053 | 33471 ft | 468 kts | 69° |
| 2026-05-07 11:06 | 50.63471 | 9.19852 | 33202 ft | 468 kts | 69° |
| 2026-05-07 11:07 | 50.64615 | 9.24647 | 32927 ft | 467 kts | 69° |
| 2026-05-07 11:07 | 50.65758 | 9.29452 | 32660 ft | 467 kts | 69° |
| 2026-05-07 11:07 | 50.66894 | 9.34247 | 32369 ft | 466 kts | 69° |
| 2026-05-07 11:07 | 50.68023 | 9.39020 | 31709 ft | 465 kts | 70° |
| 2026-05-07 11:08 | 50.69149 | 9.43791 | 31138 ft | 462 kts | 70° |
| 2026-05-07 11:08 | 50.70263 | 9.48511 | 30675 ft | 457 kts | 71° |
| 2026-05-07 11:08 | 50.71351 | 9.53136 | 30213 ft | 452 kts | 71° |
| 2026-05-07 11:08 | 50.72498 | 9.57804 | 29655 ft | 449 kts | 65° |
| 2026-05-07 11:09 | 50.74043 | 9.61980 | 29209 ft | 443 kts | 58° |
| 2026-05-07 11:09 | 50.75738 | 9.66002 | 28731 ft | 438 kts | 57° |
| 2026-05-07 11:09 | 50.77481 | 9.69934 | 28248 ft | 434 kts | 56° |
| 2026-05-07 11:09 | 50.79235 | 9.73789 | 27755 ft | 429 kts | 55° |
| 2026-05-07 11:10 | 50.80982 | 9.77593 | 27274 ft | 425 kts | 54° |
| 2026-05-07 11:10 | 50.82715 | 9.81363 | 26737 ft | 423 kts | 54° |
| 2026-05-07 11:10 | 50.84436 | 9.85116 | 26163 ft | 422 kts | 54° |
| 2026-05-07 11:10 | 50.86152 | 9.88879 | 25601 ft | 420 kts | 55° |
| 2026-05-07 11:11 | 50.87855 | 9.92634 | 25061 ft | 418 kts | 54° |
| 2026-05-07 11:11 | 50.89545 | 9.96370 | 24632 ft | 414 kts | 54° |
| 2026-05-07 11:11 | 50.91202 | 10.00044 | 24359 ft | 405 kts | 55° |
| 2026-05-07 11:11 | 50.92828 | 10.03652 | 23930 ft | 401 kts | 54° |
| 2026-05-07 11:12 | 50.94443 | 10.07243 | 23439 ft | 398 kts | 54° |
| 2026-05-07 11:12 | 50.96043 | 10.10803 | 22946 ft | 395 kts | 54° |
| 2026-05-07 11:12 | 50.97610 | 10.14291 | 22503 ft | 390 kts | 54° |
| 2026-05-07 11:12 | 50.99175 | 10.17780 | 22071 ft | 386 kts | 54° |
| 2026-05-07 11:13 | 51.00747 | 10.21289 | 21599 ft | 383 kts | 54° |
| 2026-05-07 11:13 | 51.02262 | 10.24672 | 21162 ft | 380 kts | 54° |
| 2026-05-07 11:13 | 51.03782 | 10.28074 | 20717 ft | 377 kts | 54° |
| 2026-05-07 11:13 | 51.05339 | 10.31419 | 20277 ft | 374 kts | 49° |
| 2026-05-07 11:14 | 51.07217 | 10.34242 | 19852 ft | 371 kts | 36° |
| 2026-05-07 11:14 | 51.09430 | 10.36328 | 19412 ft | 369 kts | 27° |
| 2026-05-07 11:14 | 51.11752 | 10.38032 | 18975 ft | 367 kts | 22° |
| 2026-05-07 11:14 | 51.14118 | 10.39521 | 18548 ft | 365 kts | 20° |
| 2026-05-07 11:15 | 51.16509 | 10.40910 | 18095 ft | 364 kts | 19° |
| 2026-05-07 11:15 | 51.18887 | 10.42259 | 17639 ft | 362 kts | 19° |
| 2026-05-07 11:15 | 51.21249 | 10.43607 | 17203 ft | 359 kts | 19° |
| 2026-05-07 11:15 | 51.23552 | 10.45120 | 16768 ft | 357 kts | 28° |
| 2026-05-07 11:16 | 51.25582 | 10.47370 | 16347 ft | 355 kts | 43° |
| 2026-05-07 11:16 | 51.27122 | 10.50430 | 15908 ft | 354 kts | 60° |
| 2026-05-07 11:16 | 51.27975 | 10.54045 | 15473 ft | 354 kts | 76° |
| 2026-05-07 11:16 | 51.28431 | 10.57904 | 15038 ft | 354 kts | 81° |
| 2026-05-07 11:17 | 51.28803 | 10.61790 | 14582 ft | 354 kts | 82° |
| 2026-05-07 11:17 | 51.29163 | 10.65655 | 14137 ft | 351 kts | 82° |
| 2026-05-07 11:17 | 51.29524 | 10.69516 | 13726 ft | 350 kts | 82° |
| 2026-05-07 11:17 | 51.29886 | 10.73351 | 13268 ft | 349 kts | 82° |
| 2026-05-07 11:18 | 51.30251 | 10.77183 | 12821 ft | 347 kts | 82° |
| 2026-05-07 11:18 | 51.30614 | 10.80988 | 12382 ft | 345 kts | 81° |
| 2026-05-07 11:18 | 51.30973 | 10.84778 | 11934 ft | 344 kts | 81° |
| 2026-05-07 11:18 | 51.31329 | 10.88540 | 11488 ft | 341 kts | 81° |
| 2026-05-07 11:19 | 51.31682 | 10.92280 | 11099 ft | 338 kts | 81° |
| 2026-05-07 11:19 | 51.32031 | 10.95981 | 10691 ft | 335 kts | 81° |
| 2026-05-07 11:19 | 51.32372 | 10.99620 | 10449 ft | 325 kts | 81° |
| 2026-05-07 11:19 | 51.32698 | 11.03114 | 10365 ft | 310 kts | 81° |
| 2026-05-07 11:20 | 51.33004 | 11.06416 | 10236 ft | 298 kts | 80° |
| 2026-05-07 11:20 | 51.33304 | 11.09647 | 10103 ft | 288 kts | 79° |
| 2026-05-07 11:20 | 51.33591 | 11.12759 | 9973 ft | 279 kts | 79° |
| 2026-05-07 11:20 | 51.33875 | 11.15820 | 9636 ft | 279 kts | 80° |
| 2026-05-07 11:21 | 51.34158 | 11.18889 | 9278 ft | 278 kts | 80° |
| 2026-05-07 11:21 | 51.34439 | 11.21945 | 8964 ft | 277 kts | 80° |
| 2026-05-07 11:21 | 51.34719 | 11.24986 | 8634 ft | 275 kts | 80° |
| 2026-05-07 11:21 | 51.34995 | 11.28009 | 8313 ft | 274 kts | 80° |
| 2026-05-07 11:22 | 51.35269 | 11.31022 | 7995 ft | 273 kts | 79° |
| 2026-05-07 11:22 | 51.35541 | 11.34021 | 7681 ft | 272 kts | 79° |
| 2026-05-07 11:22 | 51.35813 | 11.37016 | 7355 ft | 272 kts | 79° |
| 2026-05-07 11:22 | 51.36084 | 11.40012 | 7037 ft | 271 kts | 79° |
| 2026-05-07 11:23 | 51.36354 | 11.42999 | 6713 ft | 271 kts | 80° |
| 2026-05-07 11:23 | 51.36621 | 11.45975 | 6381 ft | 270 kts | 80° |
| 2026-05-07 11:23 | 51.36887 | 11.48952 | 6056 ft | 269 kts | 80° |
| 2026-05-07 11:23 | 51.37147 | 11.51878 | 5725 ft | 268 kts | 80° |
| 2026-05-07 11:24 | 51.37408 | 11.54834 | 5428 ft | 270 kts | 81° |
| 2026-05-07 11:24 | 51.37674 | 11.57824 | 5177 ft | 271 kts | 79° |
| 2026-05-07 11:24 | 51.37945 | 11.60789 | 4920 ft | 269 kts | 79° |
| 2026-05-07 11:24 | 51.38219 | 11.63757 | 4658 ft | 269 kts | 79° |
| 2026-05-07 11:25 | 51.38489 | 11.66712 | 4399 ft | 267 kts | 81° |
| 2026-05-07 11:25 | 51.38686 | 11.69661 | 4142 ft | 265 kts | 83° |
| 2026-05-07 11:25 | 51.38842 | 11.72562 | 4000 ft | 256 kts | 83° |
| 2026-05-07 11:25 | 51.38936 | 11.74412 | 3985 ft | 247 kts | 83° |
| 2026-05-07 11:26 | 51.39110 | 11.77917 | 3976 ft | 229 kts | 83° |
| 2026-05-07 11:26 | 51.39195 | 11.79614 | 3980 ft | 224 kts | 84° |
| 2026-05-07 11:26 | 51.39323 | 11.82085 | 3985 ft | 222 kts | 81° |
| 2026-05-07 11:26 | 51.39467 | 11.84538 | 3996 ft | 216 kts | 83° |
| 2026-05-07 11:27 | 51.39584 | 11.86834 | 4004 ft | 202 kts | 83° |
| 2026-05-07 11:27 | 51.39690 | 11.88990 | 3993 ft | 187 kts | 83° |
| 2026-05-07 11:27 | 51.39789 | 11.91031 | 3990 ft | 181 kts | 82° |
| 2026-05-07 11:27 | 51.39882 | 11.93034 | 3915 ft | 179 kts | 84° |
| 2026-05-07 11:28 | 51.39966 | 11.95017 | 3680 ft | 179 kts | 84° |
| 2026-05-07 11:28 | 51.40059 | 11.97019 | 3406 ft | 181 kts | 83° |
| 2026-05-07 11:28 | 51.40156 | 11.99036 | 3138 ft | 182 kts | 82° |
| 2026-05-07 11:28 | 51.40250 | 12.01058 | 2874 ft | 181 kts | 83° |
| 2026-05-07 11:29 | 51.40343 | 12.03034 | 2625 ft | 174 kts | 83° |
| 2026-05-07 11:29 | 51.40432 | 12.04920 | 2385 ft | 165 kts | 82° |
| 2026-05-07 11:29 | 51.40514 | 12.06688 | 2182 ft | 151 kts | 82° |
| 2026-05-07 11:29 | 51.40590 | 12.08301 | 1979 ft | 140 kts | 81° |
| 2026-05-07 11:30 | 51.40663 | 12.09842 | 1790 ft | 138 kts | 82° |
| 2026-05-07 11:30 | 51.40734 | 12.11359 | 1597 ft | 138 kts | 81° |
| 2026-05-07 11:30 | 51.40805 | 12.12902 | 1403 ft | 139 kts | 82° |
| 2026-05-07 11:30 | 51.40877 | 12.14435 | 1210 ft | 138 kts | 81° |
| 2026-05-07 11:31 | 51.40948 | 12.15969 | 1024 ft | 138 kts | 81° |
| 2026-05-07 11:31 | 51.41021 | 12.17504 | 828 ft | 138 kts | 81° |
| 2026-05-07 11:31 | 51.41098 | 12.19036 | 654 ft | 138 kts | 83° |
| 2026-05-07 11:31 | 51.41157 | 12.20554 | 467 ft | 135 kts | 83° |
| 2026-05-07 11:32 | 51.41277 | 12.22959 | 465 ft | 74 kts | 86° |
| 2026-05-07 11:32 | 51.41308 | 12.23642 | 471 ft | 37 kts | 86° |
| 2026-05-07 11:32 | 51.41297 | 12.23980 | 471 ft | 18 kts | 109° |
| 2026-05-07 11:33 | 51.41262 | 12.24104 | 469 ft | 11 kts | 114° |
| 2026-05-07 11:33 | 51.41228 | 12.24217 | 467 ft | 11 kts | 116° |
| 2026-05-07 11:33 | 51.41202 | 12.24302 | 469 ft | 7 kts | 116° |
| 2026-05-07 11:33 | 51.41182 | 12.24366 | 470 ft | 5 kts | 116° |
| 2026-05-07 11:34 | 51.41177 | 12.24412 | 468 ft | 3 kts | 89° |
| 2026-05-07 11:34 | 51.41177 | 12.24491 | 468 ft | 9 kts | 89° |
| 2026-05-07 11:34 | 51.41173 | 12.24577 | 467 ft | 4 kts | 114° |
| 2026-05-07 11:34 | 51.41163 | 12.24584 | 469 ft | 1 kts | 163° |
| 2026-05-07 11:35 | 51.41134 | 12.24589 | 468 ft | 8 kts | 172° |
| 2026-05-07 11:35 | 51.41086 | 12.24619 | 469 ft | 7 kts | 156° |
| 2026-05-07 11:35 | 51.41046 | 12.24646 | 471 ft | 6 kts | 159° |
| 2026-05-07 11:35 | 51.41003 | 12.24657 | 471 ft | 7 kts | 178° |
| 2026-05-07 11:36 | 51.40944 | 12.24662 | 467 ft | 9 kts | 175° |
| 2026-05-07 11:36 | 51.40873 | 12.24670 | 469 ft | 11 kts | 176° |
| 2026-05-07 11:36 | 51.40796 | 12.24679 | 467 ft | 9 kts | 176° |
| 2026-05-07 11:36 | 51.40781 | 12.24669 | 467 ft | 1 kts | 225° |
| 2026-05-07 11:37 | 51.40769 | 12.24620 | 467 ft | 8 kts | 261° |
| 2026-05-07 11:37 | 51.40765 | 12.24536 | 467 ft | 4 kts | 266° |
| 2026-05-07 11:37 | 51.40764 | 12.24514 | 467 ft | 0 kts | 266° |